Gullveig — FGH2177 — position and weather

sailwx.info

Track history (hours):
 
Tides and Currents Weather Stations Pressure Air Temp Water Temp Dewpoint Dewpoint Depression Visibility Wind Speed Wind Dir Waves Ship Positions

Gullveig

Last reported at 2018-Jul-16 01:58 UTC. Time now 2018-Jul-21 19:15 UTC.
Position N 47°50' W 004°33'.

Length 17 m.

Type: Sailing vessel. MMSI: 227073010.

Date/timePositionNaut miles runAvg speedWind from/ knotsBaromVisibWave heightAir tempDewpointWater temp
2018-Jul-16 01:58N 47°50' W 004°33'7 5.2
2018-Jul-16 00:34N 47°55' W 004°41'4 5.0
2018-Jul-15 23:43N 47°57' W 004°47'1 6.5
2018-Jul-15 23:30N 47°59' W 004°46'4 6.8
2018-Jul-15 22:58N 48°02' W 004°46'3 6.8
2018-Jul-15 22:29N 48°06' W 004°46'3 6.9
2018-Jul-15 21:59N 48°09' W 004°46'3 7.2
2018-Jul-15 21:30N 48°12' W 004°46'3 6.9
2018-Jul-15 21:00N 48°16' W 004°46'9 9.0
2018-Jul-15 19:58N 48°25' W 004°49'4 7.9
2018-Jul-15 19:30N 48°29' W 004°50'3 5.4
2018-Jul-15 19:00N 48°31' W 004°50'3 6.2
2018-Jul-15 18:30N 48°34' W 004°51'2 4.5
2018-Jul-15 17:59N 48°36' W 004°52'109 3.2
2018-Jul-14 08:12N 50°21' W 004°09'  
2018-Jul-06 07:53N 48°27' W 004°56'6 6.6
2018-Jul-06 06:58N 48°23' W 004°49'6 7.1
2018-Jul-06 06:08N 48°18' W 004°44'1 6.4
2018-Jul-06 06:00N 48°18' W 004°43'3 6.3
2018-Jul-06 05:30N 48°18' W 004°38'  
Track history (hours):
 
Tides and Currents Weather Stations Pressure Air Temp Water Temp Dewpoint Dewpoint Depression Visibility Wind Speed Wind Dir Waves Ship Positions

Gullveig

Last reported at 2018-Jul-16 01:58 UTC. Time now 2018-Jul-21 19:15 UTC.
Position N 47°50' W 004°33'.

Length 17 m.

Type: Sailing vessel. MMSI: 227073010.

Date/timePositionNaut miles runAvg speedWind from/ knotsBaromVisibWave heightAir tempDewpointWater temp
2018-Jul-16 01:58N 47°50' W 004°33'7 5.2
2018-Jul-16 00:34N 47°55' W 004°41'4 5.0
2018-Jul-15 23:43N 47°57' W 004°47'1 6.5
2018-Jul-15 23:30N 47°59' W 004°46'4 6.8
2018-Jul-15 22:58N 48°02' W 004°46'3 6.8
2018-Jul-15 22:29N 48°06' W 004°46'3 6.9
2018-Jul-15 21:59N 48°09' W 004°46'3 7.2
2018-Jul-15 21:30N 48°12' W 004°46'3 6.9
2018-Jul-15 21:00N 48°16' W 004°46'9 9.0
2018-Jul-15 19:58N 48°25' W 004°49'4 7.9
2018-Jul-15 19:30N 48°29' W 004°50'3 5.4
2018-Jul-15 19:00N 48°31' W 004°50'3 6.2
2018-Jul-15 18:30N 48°34' W 004°51'2 4.5
2018-Jul-15 17:59N 48°36' W 004°52'109 3.2
2018-Jul-14 08:12N 50°21' W 004°09'  
2018-Jul-06 07:53N 48°27' W 004°56'6 6.6
2018-Jul-06 06:58N 48°23' W 004°49'6 7.1
2018-Jul-06 06:08N 48°18' W 004°44'1 6.4
2018-Jul-06 06:00N 48°18' W 004°43'3 6.3
2018-Jul-06 05:30N 48°18' W 004°38'  

Dump ship's entire track history